Time;durP1;ratioP1;P1;durP2;ratioP2;P2;SDS_P1;SDS_P2;PMS_P1;PMS_P2;Temp;Humidity;BMP_temperature;BMP_pressure;BME280_temperature;BME280_humidity;BME280_pressure;Samples;Min_cycle;Max_cycle;Signal;HPM_P1;HPM_P2
2023/04/02 00:00:10;;;;;;;32.03;20.85;;;;;;;-144.87;100.00;61487.56;5026041;28;20099;-80
2023/04/02 00:02:56;;;;;;;36.38;21.90;;;;;;;-144.87;100.00;61487.56;5028483;28;20037;-78
2023/04/02 00:05:33;;;;;;;33.25;20.85;;;;;;;-144.87;100.00;61487.56;5006256;28;20052;-79
2023/04/02 00:08:39;;;;;;;34.05;21.25;;;;;;;-144.87;100.00;61487.56;5021590;28;20045;-78
2023/04/02 00:11:07;;;;;;;37.38;22.27;;;;;;;-144.87;100.00;61487.56;5012488;28;20108;-77
2023/04/02 00:13:35;;;;;;;35.15;21.65;;;;;;;-144.87;100.00;61487.56;5010470;28;20033;-77
2023/04/02 00:16:04;;;;;;;34.78;21.17;;;;;;;-144.87;100.00;61487.56;5010517;28;20035;-76
2023/04/02 00:18:30;;;;;;;34.35;22.27;;;;;;;-144.87;100.00;61487.56;5011143;28;20037;-78
2023/04/02 00:21:10;;;;;;;34.78;22.05;;;;;;;-144.87;100.00;61487.56;5010975;28;20083;-78
2023/04/02 00:23:41;;;;;;;38.45;20.90;;;;;;;-144.87;100.00;61487.56;5011231;28;20438;-79
2023/04/02 00:26:30;;;;;;;40.10;22.73;;;;;;;-144.87;100.00;61487.56;5026842;28;20029;-78
2023/04/02 00:28:58;;;;;;;35.70;21.70;;;;;;;-144.87;100.00;61487.56;5024393;28;20104;-79
2023/04/02 00:31:25;;;;;;;38.35;22.73;;;;;;;-144.87;100.00;61487.56;5027436;28;20040;-78
2023/04/02 00:33:52;;;;;;;34.42;20.58;;;;;;;-144.87;100.00;61487.56;5008627;28;20029;-78
2023/04/02 00:36:20;;;;;;;30.52;19.77;;;;;;;-144.87;100.00;61487.56;5008028;28;20144;-79
2023/04/02 00:38:47;;;;;;;30.08;20.80;;;;;;;-144.87;100.00;61487.56;4992017;28;20029;-78
2023/04/02 00:41:20;;;;;;;36.10;20.95;;;;;;;-144.87;100.00;61487.56;5004537;28;20052;-77
2023/04/02 00:43:49;;;;;;;39.70;22.20;;;;;;;-144.87;100.00;61487.56;5021040;28;20084;-78
2023/04/02 00:46:20;;;;;;;34.53;20.70;;;;;;;-144.87;100.00;61487.56;4994338;28;20503;-79
2023/04/02 00:49:20;;;;;;;36.33;20.50;;;;;;;-144.87;100.00;61487.56;5017566;28;20030;-79
2023/04/02 00:51:57;;;;;;;35.00;20.88;;;;;;;-144.87;100.00;61487.56;4994784;28;20045;-79
2023/04/02 00:54:26;;;;;;;38.42;21.73;;;;;;;-144.87;100.00;61487.56;4993969;28;20053;-78
2023/04/02 00:56:55;;;;;;;34.17;21.98;;;;;;;-144.87;100.00;61487.56;4992762;28;20048;-78
2023/04/02 00:59:36;;;;;;;37.45;22.48;;;;;;;-144.87;100.00;61487.56;5008488;28;20356;-79
2023/04/02 01:02:17;;;;;;;36.63;20.88;;;;;;;-144.87;100.00;61487.56;4997579;28;20372;-78
2023/04/02 01:05:01;;;;;;;38.90;21.77;;;;;;;-144.87;100.00;61487.56;5025295;28;20042;-79
2023/04/02 01:07:37;;;;;;;31.40;19.75;;;;;;;-144.87;100.00;61487.56;4991506;28;20120;-79
2023/04/02 01:10:09;;;;;;;33.08;20.70;;;;;;;-144.87;100.00;61487.56;5023410;28;20088;-80
2023/04/02 01:12:45;;;;;;;34.83;20.17;;;;;;;-144.87;100.00;61487.56;4989258;28;20037;-78
2023/04/02 01:15:22;;;;;;;31.73;19.42;;;;;;;-144.87;100.00;61487.56;5024753;28;20037;-78
2023/04/02 01:18:05;;;;;;;32.78;19.92;;;;;;;-144.87;100.00;61487.56;5002401;28;20076;-79
2023/04/02 01:20:42;;;;;;;28.40;20.55;;;;;;;-144.87;100.00;61487.56;5007119;28;20080;-78
2023/04/02 01:23:33;;;;;;;33.75;20.30;;;;;;;-144.87;100.00;61487.56;5007526;28;20037;-79
2023/04/02 01:26:14;;;;;;;30.50;20.17;;;;;;;-144.87;100.00;61487.56;5008641;28;20032;-80
2023/04/02 01:28:55;;;;;;;;;;;;;;;-144.87;100.00;61487.56;5005278;28;20478;-79
2023/04/02 01:31:22;;;;;;;;;;;;;;;-144.87;100.00;61487.56;5006159;28;19940;-81
2023/04/02 01:33:48;;;;;;;31.48;18.15;;;;;;;-144.87;100.00;61487.56;5019526;28;19996;-78
2023/04/02 01:36:32;;;;;;;32.85;18.95;;;;;;;-144.87;100.00;61487.56;5013420;28;20033;-79
2023/04/02 01:39:18;;;;;;;33.25;19.27;;;;;;;-144.87;100.00;61487.56;4996654;28;20103;-79
2023/04/02 01:42:08;;;;;;;30.38;19.15;;;;;;;-144.87;100.00;61487.56;5004798;28;20048;-80
2023/04/02 01:44:40;;;;;;;30.98;19.00;;;;;;;-144.87;100.00;61487.56;5011909;28;20033;-79
2023/04/02 01:47:11;;;;;;;29.00;18.13;;;;;;;-144.87;100.00;61487.56;5013606;28;20937;-78
2023/04/02 01:49:39;;;;;;;33.10;18.40;;;;;;;-144.87;100.00;61487.56;5011554;28;20079;-78
2023/04/02 01:52:06;;;;;;;28.75;17.98;;;;;;;-144.87;100.00;61487.56;4997879;28;20087;-79
2023/04/02 01:54:33;;;;;;;28.45;18.00;;;;;;;-144.87;100.00;61487.56;4995748;28;20045;-77
2023/04/02 01:57:00;;;;;;;26.35;17.65;;;;;;;-144.87;100.00;61487.56;5008755;28;20065;-80
2023/04/02 01:59:27;;;;;;;29.30;17.33;;;;;;;-144.87;100.00;61487.56;5010613;28;20034;-79
2023/04/02 02:02:02;;;;;;;29.85;17.00;;;;;;;-144.87;100.00;61487.56;4995072;28;20470;-78
2023/04/02 02:04:29;;;;;;;31.42;17.95;;;;;;;-144.87;100.00;61487.56;4992663;28;20026;-78
2023/04/02 02:06:59;;;;;;;30.83;17.75;;;;;;;-144.87;100.00;61487.56;4994304;28;20039;-77
2023/04/02 02:09:34;;;;;;;25.80;17.15;;;;;;;-144.87;100.00;61487.56;5029071;28;20125;-78
2023/04/02 02:12:02;;;;;;;30.92;16.80;;;;;;;-144.87;100.00;61487.56;5009060;28;20592;-78
2023/04/02 02:14:29;;;;;;;25.10;15.63;;;;;;;-144.87;100.00;61487.56;4995680;28;20025;-79
2023/04/02 02:17:00;;;;;;;26.50;18.67;;;;;;;-144.87;100.00;61487.56;5012136;28;20166;-78
2023/04/02 02:19:35;;;;;;;;;;;;;;;-144.87;100.00;61487.56;5014389;28;20050;-79
2023/04/02 02:22:12;;;;;;;30.67;17.70;;;;;;;-144.87;100.00;61487.56;5007595;28;19913;-79
2023/04/02 02:24:40;;;;;;;29.70;17.17;;;;;;;-144.87;100.00;61487.56;5000142;28;20454;-79
2023/04/02 02:27:26;;;;;;;27.20;17.50;;;;;;;-144.87;100.00;61487.56;5009483;28;20518;-79
2023/04/02 02:30:14;;;;;;;31.60;16.90;;;;;;;-144.87;100.00;61487.56;5008725;28;20083;-79
2023/04/02 02:33:08;;;;;;;32.50;18.15;;;;;;;-144.87;100.00;61487.56;4996735;28;20037;-79
2023/04/02 02:35:45;;;;;;;35.20;17.42;;;;;;;-144.87;100.00;61487.56;5008064;28;20029;-80
2023/04/02 02:38:30;;;;;;;29.48;15.65;;;;;;;-144.87;100.00;61487.56;5001711;28;20514;-80
2023/04/02 02:41:23;;;;;;;25.08;16.00;;;;;;;-144.87;100.00;61487.56;4994497;28;20103;-78
2023/04/02 02:44:01;;;;;;;29.17;15.90;;;;;;;-144.87;100.00;61487.56;5022832;28;20973;-79
2023/04/02 02:46:28;;;;;;;24.45;15.40;;;;;;;-144.87;100.00;61487.56;4993579;28;20413;-79
2023/04/02 02:48:56;;;;;;;26.92;15.07;;;;;;;-144.87;100.00;61487.56;4996573;28;20571;-77
2023/04/02 02:51:38;;;;;;;20.77;14.50;;;;;;;-144.87;100.00;61487.56;4993841;28;20041;-78
2023/04/02 02:54:04;;;;;;;;;;;;;;;-144.87;100.00;61487.56;4993955;28;20491;-79
2023/04/02 02:56:37;;;;;;;25.38;15.50;;;;;;;-144.87;100.00;61487.56;5011105;28;19917;-79
2023/04/02 02:59:05;;;;;;;20.83;14.60;;;;;;;-144.87;100.00;61487.56;4994875;28;20486;-79
2023/04/02 03:01:36;;;;;;;25.13;15.32;;;;;;;-144.87;100.00;61487.56;5005521;28;20398;-79
2023/04/02 03:04:04;;;;;;;26.92;14.63;;;;;;;-144.87;100.00;61487.56;5011254;28;20033;-76
2023/04/02 03:06:31;;;;;;;28.73;15.52;;;;;;;-144.87;100.00;61487.56;5009852;28;20037;-80
2023/04/02 03:09:34;;;;;;;25.15;15.15;;;;;;;-144.87;100.00;61487.56;4990537;28;20105;-79
2023/04/02 03:12:15;;;;;;;29.33;15.30;;;;;;;-144.87;100.00;61487.56;5028850;28;20056;-77
2023/04/02 03:14:58;;;;;;;23.27;15.00;;;;;;;-144.87;100.00;61487.56;5003035;28;20525;-80
2023/04/02 03:17:36;;;;;;;22.35;14.95;;;;;;;-144.87;100.00;61487.56;5023867;28;20030;-78
2023/04/02 03:20:18;;;;;;;25.00;15.07;;;;;;;-144.87;100.00;61487.56;5007950;28;20057;-78
2023/04/02 03:22:57;;;;;;;24.13;14.15;;;;;;;-144.87;100.00;61487.56;5024247;28;20048;-80
2023/04/02 03:25:39;;;;;;;20.08;14.20;;;;;;;-144.87;100.00;61487.56;5006530;28;20040;-77
2023/04/02 03:28:10;;;;;;;21.73;14.00;;;;;;;-144.87;100.00;61487.56;4992909;28;20124;-77
2023/04/02 03:30:54;;;;;;;25.85;15.25;;;;;;;-144.87;100.00;61487.56;4995158;28;20040;-80
2023/04/02 03:33:25;;;;;;;28.60;14.15;;;;;;;-144.87;100.00;61487.56;5007309;28;20025;-77
2023/04/02 03:36:02;;;;;;;21.73;14.52;;;;;;;-144.87;100.00;61487.56;5027393;28;20061;-79
2023/04/02 03:38:38;;;;;;;23.52;14.90;;;;;;;-144.87;100.00;61487.56;5012499;28;20029;-78
2023/04/02 03:41:33;;;;;;;22.25;13.77;;;;;;;-144.87;100.00;61487.56;5011061;28;20029;-74
2023/04/02 03:44:06;;;;;;;20.20;14.13;;;;;;;-144.87;100.00;61487.56;5001447;28;20089;-77
2023/04/02 03:46:39;;;;;;;23.27;14.40;;;;;;;-144.87;100.00;61487.56;4994432;28;20144;-76
2023/04/02 03:49:10;;;;;;;20.77;14.25;;;;;;;-144.87;100.00;61487.56;5006412;28;20112;-76
2023/04/02 03:51:44;;;;;;;23.50;14.38;;;;;;;-144.87;100.00;61487.56;4992859;28;20033;-76
2023/04/02 03:54:14;;;;;;;20.75;14.07;;;;;;;-144.87;100.00;61487.56;5007909;28;20026;-78
2023/04/02 03:56:40;;;;;;;22.70;14.35;;;;;;;-144.87;100.00;61487.56;4992997;28;20091;-77
2023/04/02 03:59:15;;;;;;;;;;;;;;;-144.87;100.00;61487.56;4992031;28;20542;-78
2023/04/02 04:02:17;;;;;;;19.88;14.02;;;;;;;-144.87;100.00;61487.56;5009341;28;20412;-77
2023/04/02 04:04:45;;;;;;;24.30;14.38;;;;;;;-144.87;100.00;61487.56;4993124;28;20041;-78
2023/04/02 04:07:31;;;;;;;22.98;13.93;;;;;;;-144.87;100.00;61487.56;5010790;28;20034;-78
2023/04/02 04:09:59;;;;;;;26.10;14.93;;;;;;;-144.87;100.00;61487.56;5026468;28;20025;-79
2023/04/02 04:12:47;;;;;;;24.30;14.85;;;;;;;-144.87;100.00;61487.56;4988052;28;20022;-78
2023/04/02 04:15:39;;;;;;;22.52;15.00;;;;;;;-144.87;100.00;61487.56;5001496;28;20679;-77
2023/04/02 04:18:33;;;;;;;23.55;14.35;;;;;;;-144.87;100.00;61487.56;5026786;28;20029;-79
2023/04/02 04:21:04;;;;;;;24.63;14.55;;;;;;;-144.87;100.00;61487.56;5010271;28;20470;-78
2023/04/02 04:23:39;;;;;;;25.27;14.43;;;;;;;-144.87;100.00;61487.56;5009162;28;20041;-79
2023/04/02 04:26:18;;;;;;;22.38;13.90;;;;;;;-144.87;100.00;61487.56;5025264;28;20026;-79
2023/04/02 04:29:24;;;;;;;21.40;14.57;;;;;;;-144.87;100.00;61487.56;4986878;28;20030;-79
2023/04/02 04:31:54;;;;;;;24.60;14.63;;;;;;;-144.87;100.00;61487.56;5027106;28;20033;-77
2023/04/02 04:34:35;;;;;;;19.90;13.10;;;;;;;-144.87;100.00;61487.56;5026426;28;20091;-79
2023/04/02 04:37:06;;;;;;;20.10;13.48;;;;;;;-144.87;100.00;61487.56;4994735;28;20148;-79
2023/04/02 04:39:43;;;;;;;22.20;12.68;;;;;;;-144.87;100.00;61487.56;4990639;28;20033;-78
2023/04/02 04:42:19;;;;;;;19.80;12.80;;;;;;;-144.87;100.00;61487.56;4992216;28;20029;-80
2023/04/02 04:44:57;;;;;;;17.08;12.02;;;;;;;-144.87;100.00;61487.56;5004929;28;20034;-76
2023/04/02 04:47:46;;;;;;;18.95;11.80;;;;;;;-144.87;100.00;61487.56;5006437;28;20084;-76
2023/04/02 04:50:37;;;;;;;19.20;12.60;;;;;;;-144.87;100.00;61487.56;5008777;28;20033;-78
2023/04/02 04:53:06;;;;;;;19.92;12.05;;;;;;;-144.87;100.00;61487.56;5002976;28;20095;-76
2023/04/02 04:55:42;;;;;;;20.13;13.65;;;;;;;-144.87;100.00;61487.56;5010882;28;20118;-78
2023/04/02 04:58:34;;;;;;;20.85;12.27;;;;;;;-144.87;100.00;61487.56;5009709;28;20521;-77
2023/04/02 05:01:18;;;;;;;20.90;12.68;;;;;;;-144.87;100.00;61487.56;5006555;28;20112;-79
2023/04/02 05:03:57;;;;;;;19.05;11.60;;;;;;;-144.87;100.00;61487.56;5004337;28;20110;-79
2023/04/02 05:06:31;;;;;;;21.05;13.02;;;;;;;-144.87;100.00;61487.56;5009245;28;20057;-80
2023/04/02 05:09:05;;;;;;;19.23;11.57;;;;;;;-144.87;100.00;61487.56;5001992;28;20028;-78
2023/04/02 05:11:43;;;;;;;23.73;12.38;;;;;;;-144.87;100.00;61487.56;4993100;28;20521;-78
2023/04/02 05:14:26;;;;;;;21.80;11.82;;;;;;;-144.87;100.00;61487.56;5006743;28;20396;-79
2023/04/02 05:17:07;;;;;;;18.35;10.32;;;;;;;-144.87;100.00;61487.56;5005941;28;20021;-79
2023/04/02 05:19:40;;;;;;;16.33;9.77;;;;;;;-144.87;100.00;61487.56;5006338;28;20057;-76
2023/04/02 05:22:42;;;;;;;15.50;9.35;;;;;;;-144.87;100.00;61487.56;4990121;28;20025;-79
2023/04/02 05:25:21;;;;;;;17.25;9.68;;;;;;;-144.87;100.00;61487.56;5000471;28;20427;-79
2023/04/02 05:27:57;;;;;;;16.35;8.50;;;;;;;-144.87;100.00;61487.56;5002057;28;20064;-78
2023/04/02 05:30:24;;;;;;;18.88;8.73;;;;;;;-144.87;100.00;61487.56;5009033;28;20508;-78
2023/04/02 05:33:23;;;;;;;18.80;9.30;;;;;;;-144.87;100.00;61487.56;5006778;28;20040;-76
2023/04/02 05:36:02;;;;;;;18.65;9.05;;;;;;;-144.87;100.00;61487.56;4995494;28;20107;-79
2023/04/02 05:38:33;;;;;;;16.17;8.25;;;;;;;-144.87;100.00;61487.56;5010932;28;20033;-80
2023/04/02 05:41:25;;;;;;;19.13;8.27;;;;;;;-144.87;100.00;61487.56;5002265;28;20127;-80
2023/04/02 05:44:17;;;;;;;17.40;8.10;;;;;;;-144.87;100.00;61487.56;5027771;28;20390;-76
2023/04/02 05:46:51;;;;;;;14.00;7.75;;;;;;;-144.87;100.00;61487.56;5004442;28;20040;-79
2023/04/02 05:49:34;;;;;;;15.80;7.70;;;;;;;-144.87;100.00;61487.56;4993461;28;20037;-78
2023/04/02 05:52:03;;;;;;;13.32;6.97;;;;;;;-144.87;100.00;61487.56;5022423;28;20063;-79
2023/04/02 05:54:45;;;;;;;13.43;7.53;;;;;;;-144.87;100.00;61487.56;5023250;28;20043;-79
2023/04/02 05:57:16;;;;;;;13.57;6.32;;;;;;;-144.87;100.00;61487.56;5009149;28;20068;-77
2023/04/02 05:59:44;;;;;;;;;;;;;;;-144.87;100.00;61487.56;4991648;28;20033;-78
2023/04/02 06:02:29;;;;;;;15.35;7.38;;;;;;;-144.87;100.00;61487.56;5000948;28;19914;-80
2023/04/02 06:05:31;;;;;;;17.95;7.60;;;;;;;-144.87;100.00;61487.56;5006685;28;20576;-79
2023/04/02 06:08:15;;;;;;;13.63;7.45;;;;;;;-144.87;100.00;61487.56;4982428;28;20038;-78
2023/04/02 06:10:54;;;;;;;15.07;8.02;;;;;;;-144.87;100.00;61487.56;5024077;28;20025;-79
2023/04/02 06:13:24;;;;;;;20.58;8.07;;;;;;;-144.87;100.00;61487.56;5007931;28;20029;-79
2023/04/02 06:15:50;;;;;;;19.90;7.72;;;;;;;-144.87;100.00;61487.56;5003044;28;20029;-80
2023/04/02 06:18:41;;;;;;;15.18;7.90;;;;;;;-144.87;100.00;61487.56;4989574;28;20034;-77
2023/04/02 06:21:09;;;;;;;12.27;7.18;;;;;;;-144.87;100.00;61487.56;5008551;28;20046;-79
2023/04/02 06:23:54;;;;;;;15.98;8.15;;;;;;;-144.87;100.00;61487.56;4993590;28;20444;-79
2023/04/02 06:26:31;;;;;;;21.25;8.40;;;;;;;-144.87;100.00;61487.56;5014781;28;20703;-78
2023/04/02 06:29:01;;;;;;;15.35;8.20;;;;;;;-144.87;100.00;61487.56;5010720;28;20100;-77
2023/04/02 06:31:48;;;;;;;17.23;7.88;;;;;;;-144.87;100.00;61487.56;5028192;28;20032;-77
2023/04/02 06:34:17;;;;;;;15.30;7.80;;;;;;;-144.87;100.00;61487.56;5016451;28;20222;-78
2023/04/02 06:36:55;;;;;;;16.10;9.98;;;;;;;-144.87;100.00;61487.56;4997734;28;20080;-76
2023/04/02 06:39:24;;;;;;;18.00;8.77;;;;;;;-144.87;100.00;61487.56;5009194;28;20120;-79
2023/04/02 06:41:57;;;;;;;17.65;8.05;;;;;;;-144.87;100.00;61487.56;5011510;28;20057;-78
2023/04/02 06:44:44;;;;;;;13.63;9.38;;;;;;;-144.87;100.00;61487.56;5034822;28;20045;-77
2023/04/02 06:47:47;;;;;;;27.92;11.40;;;;;;;-144.87;100.00;61487.56;4935466;28;20061;-78
2023/04/02 06:50:34;;;;;;;19.00;9.95;;;;;;;-144.87;100.00;61487.56;5008568;28;20071;-77
2023/04/02 06:53:05;;;;;;;20.38;10.68;;;;;;;-144.87;100.00;61487.56;5004758;28;20033;-78
2023/04/02 06:55:55;;;;;;;18.45;11.68;;;;;;;-144.87;100.00;61487.56;4997288;28;20044;-80
2023/04/02 06:58:26;;;;;;;21.00;12.38;;;;;;;-144.87;100.00;61487.56;4993592;28;20041;-78
2023/04/02 07:00:53;;;;;;;19.17;10.05;;;;;;;-144.87;100.00;61487.56;4994893;28;20033;-76
2023/04/02 07:03:31;;;;;;;18.88;10.20;;;;;;;-144.87;100.00;61487.56;5021544;28;20073;-78
2023/04/02 07:06:02;;;;;;;20.77;9.90;;;;;;;-144.87;100.00;61487.56;4998198;28;20037;-77
2023/04/02 07:08:30;;;;;;;25.17;11.70;;;;;;;-144.87;100.00;61487.56;4997190;28;20511;-77
2023/04/02 07:10:57;;;;;;;19.42;11.73;;;;;;;-144.87;100.00;61487.56;4997625;28;20526;-79
2023/04/02 07:13:24;;;;;;;18.80;11.13;;;;;;;-144.87;100.00;61487.56;5014798;28;20512;-76
2023/04/02 07:15:52;;;;;;;19.23;9.98;;;;;;;-144.87;100.00;61487.56;5013876;28;20033;-79
2023/04/02 07:18:23;;;;;;;20.65;10.50;;;;;;;-144.87;100.00;61487.56;4999759;28;20503;-78
2023/04/02 07:20:50;;;;;;;27.70;14.43;;;;;;;-144.87;100.00;61487.56;5002645;28;20050;-80
2023/04/02 07:23:16;;;;;;;14.20;8.98;;;;;;;-144.87;100.00;61487.56;4996291;28;20037;-79
2023/04/02 07:25:43;;;;;;;18.10;10.05;;;;;;;-144.87;100.00;61487.56;5031662;28;20406;-81
2023/04/02 07:28:09;;;;;;;22.55;10.55;;;;;;;-144.87;100.00;61487.56;5031468;28;20048;-80
2023/04/02 07:30:35;;;;;;;26.83;12.07;;;;;;;-144.87;100.00;61487.56;5012370;28;20041;-80
2023/04/02 07:33:01;;;;;;;25.60;12.52;;;;;;;-144.87;100.00;61487.56;5012415;28;20386;-78
2023/04/02 07:35:28;;;;;;;19.20;9.68;;;;;;;-144.87;100.00;61487.56;5017578;28;20354;-80
2023/04/02 07:37:55;;;;;;;15.70;8.60;;;;;;;-144.87;100.00;61487.56;5030405;28;20481;-77
2023/04/02 07:40:22;;;;;;;12.65;9.10;;;;;;;-144.87;100.00;61487.56;5027830;28;20144;-81
2023/04/02 07:42:51;;;;;;;17.95;9.38;;;;;;;-144.87;100.00;61487.56;5019453;28;20040;-80
2023/04/02 07:45:18;;;;;;;14.90;8.88;;;;;;;-144.87;100.00;61487.56;5016463;28;20052;-81
2023/04/02 07:47:44;;;;;;;15.60;8.55;;;;;;;-144.87;100.00;61487.56;5018984;28;20044;-78
2023/04/02 07:50:10;;;;;;;11.82;7.82;;;;;;;-144.87;100.00;61487.56;5029947;28;20037;-82
2023/04/02 07:52:43;;;;;;;13.38;7.43;;;;;;;-144.87;100.00;61487.56;5030323;28;20506;-78
2023/04/02 07:55:11;;;;;;;20.95;10.82;;;;;;;-144.87;100.00;61487.56;4996469;28;20119;-78
2023/04/02 07:57:48;;;;;;;15.65;7.57;;;;;;;-144.87;100.00;61487.56;5016723;28;20038;-78
2023/04/02 08:00:15;;;;;;;11.23;7.97;;;;;;;-144.87;100.00;61487.56;5029169;28;20497;-79
2023/04/02 08:02:41;;;;;;;11.88;7.47;;;;;;;-144.87;100.00;61487.56;5034805;28;20079;-80
2023/04/02 08:05:09;;;;;;;16.00;9.40;;;;;;;-144.87;100.00;61487.56;5030903;28;20037;-79
2023/04/02 08:07:36;;;;;;;17.13;7.50;;;;;;;-144.87;100.00;61487.56;5030520;28;20029;-79
2023/04/02 08:10:04;;;;;;;17.23;7.30;;;;;;;-144.87;100.00;61487.56;5035323;28;20435;-80
2023/04/02 08:12:30;;;;;;;8.95;5.93;;;;;;;-144.87;100.00;61487.56;5019992;28;20033;-80
2023/04/02 08:14:57;;;;;;;9.60;6.90;;;;;;;-144.87;100.00;61487.56;5030722;28;20108;-79
2023/04/02 08:17:23;;;;;;;12.40;6.82;;;;;;;-144.87;100.00;61487.56;5029888;28;20033;-78
2023/04/02 08:19:49;;;;;;;12.85;6.75;;;;;;;-144.87;100.00;61487.56;5006162;28;20082;-79
2023/04/02 08:22:16;;;;;;;11.05;7.05;;;;;;;-144.87;100.00;61487.56;4989254;28;20054;-78
2023/04/02 08:24:45;;;;;;;10.43;6.28;;;;;;;-144.87;100.00;61487.56;4989731;28;20101;-80
2023/04/02 08:27:14;;;;;;;12.18;5.78;;;;;;;-144.87;100.00;61487.56;4989506;28;20085;-77
2023/04/02 08:29:40;;;;;;;10.63;6.68;;;;;;;-144.87;100.00;61487.56;4983236;28;20046;-79
2023/04/02 08:32:08;;;;;;;12.75;6.80;;;;;;;-144.87;100.00;61487.56;4989002;28;20105;-80
2023/04/02 08:34:34;;;;;;;10.00;6.20;;;;;;;-144.87;100.00;61487.56;4989025;28;20482;-79
2023/04/02 08:37:01;;;;;;;10.75;6.00;;;;;;;-144.87;100.00;61487.56;4989033;28;20092;-78
2023/04/02 08:39:31;;;;;;;10.20;6.40;;;;;;;-144.87;100.00;61487.56;4988233;28;20046;-80
2023/04/02 08:42:07;;;;;;;15.80;7.82;;;;;;;-144.87;100.00;61487.56;5001662;28;20096;-79
2023/04/02 08:44:36;;;;;;;15.93;7.75;;;;;;;-144.87;100.00;61487.56;4998627;28;20039;-78
2023/04/02 08:47:07;;;;;;;14.05;7.20;;;;;;;-144.87;100.00;61487.56;4990569;28;20545;-78
2023/04/02 08:49:35;;;;;;;;;;;;;;;-144.87;100.00;61487.56;4991106;28;20596;-80
2023/04/02 08:52:01;;;;;;;11.55;6.90;;;;;;;-144.87;100.00;61487.56;4996868;28;19924;-79
2023/04/02 08:54:33;;;;;;;12.77;7.15;;;;;;;-144.87;100.00;61487.56;4989125;28;20042;-80
2023/04/02 08:57:12;;;;;;;12.23;7.15;;;;;;;-144.87;100.00;61487.56;4986861;28;20407;-80
2023/04/02 08:59:41;;;;;;;14.43;7.65;;;;;;;-144.87;100.00;61487.56;4985072;28;20661;-79
2023/04/02 09:02:39;;;;;;;12.02;7.53;;;;;;;-144.87;100.00;61487.56;4981946;28;20037;-79
2023/04/02 09:05:08;;;;;;;13.13;8.40;;;;;;;-144.87;100.00;61487.56;4987657;28;20049;-77
2023/04/02 09:07:35;;;;;;;11.18;8.55;;;;;;;-144.87;100.00;61487.56;4988800;28;20117;-79
2023/04/02 09:10:01;;;;;;;14.27;9.82;;;;;;;-144.87;100.00;61487.56;4989717;28;20037;-78
2023/04/02 09:12:31;;;;;;;20.13;9.30;;;;;;;-144.87;100.00;61487.56;4988427;28;20034;-79
2023/04/02 09:15:23;;;;;;;17.73;9.93;;;;;;;-144.87;100.00;61487.56;4992052;28;20083;-77
2023/04/02 09:18:16;;;;;;;12.60;9.57;;;;;;;-144.87;100.00;61487.56;4987982;28;20109;-80
2023/04/02 09:20:43;;;;;;;16.90;9.57;;;;;;;-144.87;100.00;61487.56;5018527;28;20049;-78
2023/04/02 09:23:23;;;;;;;16.00;10.18;;;;;;;-144.87;100.00;61487.56;5029212;28;20032;-77
2023/04/02 09:25:52;;;;;;;18.42;11.07;;;;;;;-144.87;100.00;61487.56;5010500;28;20037;-79
2023/04/02 09:28:20;;;;;;;23.52;12.15;;;;;;;-144.87;100.00;61487.56;5019096;28;20037;-80
2023/04/02 09:31:08;;;;;;;14.93;8.05;;;;;;;-144.87;100.00;61487.56;5028660;28;20426;-77
2023/04/02 09:33:46;;;;;;;12.80;8.02;;;;;;;-144.87;100.00;61487.56;5018696;28;20099;-76
2023/04/02 09:36:27;;;;;;;8.95;6.55;;;;;;;-144.87;100.00;61487.56;5028474;28;20116;-79
2023/04/02 09:39:21;;;;;;;10.70;7.03;;;;;;;-144.87;100.00;61487.56;5010743;28;20056;-78
2023/04/02 09:41:48;;;;;;;10.45;6.43;;;;;;;-144.87;100.00;61487.56;5027971;28;20115;-77
2023/04/02 09:44:26;;;;;;;8.48;4.53;;;;;;;-144.87;100.00;61487.56;5029647;28;20096;-79
2023/04/02 09:47:04;;;;;;;11.50;4.20;;;;;;;-144.87;100.00;61487.56;5011247;28;20124;-80
2023/04/02 09:49:36;;;;;;;8.48;3.67;;;;;;;-144.87;100.00;61487.56;5028985;28;20112;-76
2023/04/02 09:52:10;;;;;;;7.25;3.90;;;;;;;-144.87;100.00;61487.56;5003027;28;20033;-78
2023/04/02 09:54:43;;;;;;;14.68;3.83;;;;;;;-144.87;100.00;61487.56;5028417;28;20056;-78
2023/04/02 09:57:23;;;;;;;6.43;4.00;;;;;;;-144.87;100.00;61487.56;5009105;28;20045;-78
2023/04/02 10:00:25;;;;;;;9.23;3.72;;;;;;;-144.87;100.00;61487.56;5039860;28;20097;-78
2023/04/02 10:03:04;;;;;;;7.35;3.70;;;;;;;-144.87;100.00;61487.56;5009823;28;20025;-79
2023/04/02 10:05:32;;;;;;;6.85;3.72;;;;;;;-144.87;100.00;61487.56;5026674;28;20115;-77
2023/04/02 10:08:21;;;;;;;10.57;4.20;;;;;;;-144.87;100.00;61487.56;5009929;28;20095;-77
2023/04/02 10:10:54;;;;;;;10.52;3.47;;;;;;;-144.87;100.00;61487.56;5025586;28;20128;-77
2023/04/02 10:13:59;;;;;;;8.57;3.65;;;;;;;-144.87;100.00;61487.56;4990544;28;20479;-79
2023/04/02 10:16:39;;;;;;;6.43;3.35;;;;;;;-144.87;100.00;61487.56;5028335;28;20072;-79
2023/04/02 10:19:12;;;;;;;10.93;3.58;;;;;;;-144.87;100.00;61487.56;5025674;28;20778;-79
2023/04/02 10:21:40;;;;;;;8.98;3.33;;;;;;;-144.87;100.00;61487.56;5023694;28;20418;-78
2023/04/02 10:24:14;;;;;;;7.53;3.95;;;;;;;-144.87;100.00;61487.56;5004883;28;20034;-78
2023/04/02 10:27:08;;;;;;;9.57;3.60;;;;;;;-144.87;100.00;61487.56;5029763;28;20056;-75
2023/04/02 10:29:40;;;;;;;8.07;3.60;;;;;;;-144.87;100.00;61487.56;5014167;28;20398;-76
2023/04/02 10:32:10;;;;;;;8.82;3.95;;;;;;;-144.87;100.00;61487.56;5027893;28;20098;-79
2023/04/02 10:34:43;;;;;;;9.98;3.88;;;;;;;-144.87;100.00;61487.56;5029155;28;20544;-79
2023/04/02 10:37:28;;;;;;;10.05;3.83;;;;;;;-144.87;100.00;61487.56;5021816;28;20044;-76
2023/04/02 10:39:59;;;;;;;7.63;3.45;;;;;;;-144.87;100.00;61487.56;5027312;28;20033;-79
2023/04/02 10:42:48;;;;;;;11.68;3.58;;;;;;;-144.87;100.00;61487.56;5028992;28;20026;-78
2023/04/02 10:45:38;;;;;;;7.63;3.60;;;;;;;-144.87;100.00;61487.56;5027134;28;20029;-79
2023/04/02 10:48:32;;;;;;;7.07;4.32;;;;;;;-144.87;100.00;61487.56;5026321;28;20048;-80
2023/04/02 10:51:22;;;;;;;5.75;3.28;;;;;;;-144.87;100.00;61487.56;5026470;28;20390;-81
2023/04/02 10:54:14;;;;;;;8.55;3.40;;;;;;;-144.87;100.00;61487.56;5027942;28;20029;-80
2023/04/02 10:56:43;;;;;;;8.50;3.47;;;;;;;-144.87;100.00;61487.56;5025071;28;20516;-80
2023/04/02 10:59:18;;;;;;;6.70;2.90;;;;;;;-144.87;100.00;61487.56;5023706;28;20037;-77
2023/04/02 11:01:47;;;;;;;7.78;3.30;;;;;;;-144.87;100.00;61487.56;5010716;28;20040;-80
2023/04/02 11:04:17;;;;;;;7.13;3.00;;;;;;;-144.87;100.00;61487.56;5023217;28;20041;-77
2023/04/02 11:06:57;;;;;;;7.17;2.83;;;;;;;-144.87;100.00;61487.56;5026167;28;20448;-78
2023/04/02 11:09:26;;;;;;;8.82;3.88;;;;;;;-144.87;100.00;61487.56;5009946;28;20080;-80
2023/04/02 11:11:58;;;;;;;7.38;3.00;;;;;;;-144.87;100.00;61487.56;5027281;28;20513;-77
2023/04/02 11:14:29;;;;;;;7.78;3.20;;;;;;;-144.87;100.00;61487.56;5007824;28;20036;-80
2023/04/02 11:16:57;;;;;;;7.30;3.15;;;;;;;-144.87;100.00;61487.56;5027103;28;20148;-78
2023/04/02 11:19:29;;;;;;;5.72;3.20;;;;;;;-144.87;100.00;61487.56;5033742;28;20046;-79
2023/04/02 11:22:00;;;;;;;8.85;3.15;;;;;;;-144.87;100.00;61487.56;5028965;28;20036;-79
2023/04/02 11:24:36;;;;;;;8.67;2.87;;;;;;;-144.87;100.00;61487.56;5027932;28;20621;-79
2023/04/02 11:27:13;;;;;;;8.25;2.97;;;;;;;-144.87;100.00;61487.56;5029108;28;20383;-80
2023/04/02 11:30:04;;;;;;;9.52;3.38;;;;;;;-144.87;100.00;61487.56;5026655;28;20044;-80
2023/04/02 11:32:41;;;;;;;8.60;3.10;;;;;;;-144.87;100.00;61487.56;5027441;28;20103;-77
2023/04/02 11:35:36;;;;;;;11.32;3.70;;;;;;;-144.87;100.00;61487.56;5016021;28;20029;-78
2023/04/02 11:38:10;;;;;;;6.75;2.70;;;;;;;-144.87;100.00;61487.56;5027141;28;20029;-79